sensor_id;sensor_type;location;lat;lon;timestamp;P1;durP1;ratioP1;P2;durP2;ratioP2
21352;SDS011;10834;52.268;6.770;2022-07-22T00:02:02;1.00;;;0.68;;
21352;SDS011;10834;52.268;6.770;2022-07-22T00:04:48;1.27;;;0.63;;
21352;SDS011;10834;52.268;6.770;2022-07-22T00:07:34;0.65;;;0.65;;
21352;SDS011;10834;52.268;6.770;2022-07-22T00:10:20;1.60;;;0.80;;
21352;SDS011;10834;52.268;6.770;2022-07-22T00:13:06;0.90;;;0.90;;
21352;SDS011;10834;52.268;6.770;2022-07-22T00:15:52;0.82;;;0.63;;
21352;SDS011;10834;52.268;6.770;2022-07-22T00:18:39;0.60;;;0.60;;
21352;SDS011;10834;52.268;6.770;2022-07-22T00:21:25;0.85;;;0.85;;
21352;SDS011;10834;52.268;6.770;2022-07-22T00:24:11;0.60;;;0.60;;
21352;SDS011;10834;52.268;6.770;2022-07-22T00:26:57;1.25;;;0.80;;
21352;SDS011;10834;52.268;6.770;2022-07-22T00:29:43;0.70;;;0.70;;
21352;SDS011;10834;52.268;6.770;2022-07-22T00:32:29;0.73;;;0.60;;
21352;SDS011;10834;52.268;6.770;2022-07-22T00:35:15;1.17;;;0.68;;
21352;SDS011;10834;52.268;6.770;2022-07-22T00:38:01;1.00;;;0.65;;
21352;SDS011;10834;52.268;6.770;2022-07-22T00:40:47;1.33;;;0.90;;
21352;SDS011;10834;52.268;6.770;2022-07-22T00:43:53;1.05;;;0.68;;
21352;SDS011;10834;52.268;6.770;2022-07-22T00:46:42;0.75;;;0.75;;
21352;SDS011;10834;52.268;6.770;2022-07-22T00:49:29;0.80;;;0.75;;
21352;SDS011;10834;52.268;6.770;2022-07-22T00:52:15;0.60;;;0.60;;
21352;SDS011;10834;52.268;6.770;2022-07-22T00:55:04;1.05;;;0.60;;
21352;SDS011;10834;52.268;6.770;2022-07-22T00:57:50;0.63;;;0.60;;
21352;SDS011;10834;52.268;6.770;2022-07-22T01:00:36;0.70;;;0.55;;
21352;SDS011;10834;52.268;6.770;2022-07-22T01:03:22;0.98;;;0.75;;
21352;SDS011;10834;52.268;6.770;2022-07-22T01:06:08;0.60;;;0.60;;
21352;SDS011;10834;52.268;6.770;2022-07-22T01:08:56;0.90;;;0.60;;
21352;SDS011;10834;52.268;6.770;2022-07-22T01:11:42;0.60;;;0.60;;
21352;SDS011;10834;52.268;6.770;2022-07-22T01:14:28;1.33;;;0.60;;
21352;SDS011;10834;52.268;6.770;2022-07-22T01:17:14;1.33;;;0.88;;
21352;SDS011;10834;52.268;6.770;2022-07-22T01:20:02;0.65;;;0.65;;
21352;SDS011;10834;52.268;6.770;2022-07-22T01:22:49;1.15;;;0.80;;
21352;SDS011;10834;52.268;6.770;2022-07-22T01:25:35;0.80;;;0.80;;
21352;SDS011;10834;52.268;6.770;2022-07-22T01:28:21;1.63;;;0.77;;
21352;SDS011;10834;52.268;6.770;2022-07-22T01:31:08;0.57;;;0.57;;
21352;SDS011;10834;52.268;6.770;2022-07-22T01:33:54;1.92;;;0.60;;
21352;SDS011;10834;52.268;6.770;2022-07-22T01:36:40;1.60;;;0.70;;
21352;SDS011;10834;52.268;6.770;2022-07-22T01:39:26;1.98;;;0.55;;
21352;SDS011;10834;52.268;6.770;2022-07-22T01:42:12;0.60;;;0.60;;
21352;SDS011;10834;52.268;6.770;2022-07-22T01:44:58;1.23;;;1.00;;
21352;SDS011;10834;52.268;6.770;2022-07-22T01:47:44;1.42;;;0.75;;
21352;SDS011;10834;52.268;6.770;2022-07-22T01:50:31;0.70;;;0.70;;
21352;SDS011;10834;52.268;6.770;2022-07-22T01:53:17;2.13;;;0.93;;
21352;SDS011;10834;52.268;6.770;2022-07-22T01:56:03;0.60;;;0.60;;
21352;SDS011;10834;52.268;6.770;2022-07-22T01:58:50;0.60;;;0.60;;
21352;SDS011;10834;52.268;6.770;2022-07-22T02:01:36;1.75;;;0.68;;
21352;SDS011;10834;52.268;6.770;2022-07-22T02:04:22;1.63;;;1.33;;
21352;SDS011;10834;52.268;6.770;2022-07-22T02:07:08;0.73;;;0.73;;
21352;SDS011;10834;52.268;6.770;2022-07-22T02:09:54;0.77;;;0.77;;
21352;SDS011;10834;52.268;6.770;2022-07-22T02:12:40;0.65;;;0.50;;
21352;SDS011;10834;52.268;6.770;2022-07-22T02:15:26;0.88;;;0.80;;
21352;SDS011;10834;52.268;6.770;2022-07-22T02:18:14;0.70;;;0.60;;
21352;SDS011;10834;52.268;6.770;2022-07-22T02:21:01;1.42;;;0.95;;
21352;SDS011;10834;52.268;6.770;2022-07-22T02:23:47;0.77;;;0.50;;
21352;SDS011;10834;52.268;6.770;2022-07-22T02:26:33;1.58;;;0.70;;
21352;SDS011;10834;52.268;6.770;2022-07-22T02:29:20;1.95;;;0.80;;
21352;SDS011;10834;52.268;6.770;2022-07-22T02:32:06;1.50;;;0.85;;
21352;SDS011;10834;52.268;6.770;2022-07-22T02:34:52;1.38;;;0.85;;
21352;SDS011;10834;52.268;6.770;2022-07-22T02:37:38;0.85;;;0.80;;
21352;SDS011;10834;52.268;6.770;2022-07-22T02:40:24;1.65;;;0.80;;
21352;SDS011;10834;52.268;6.770;2022-07-22T02:43:10;1.30;;;0.60;;
21352;SDS011;10834;52.268;6.770;2022-07-22T02:45:57;1.75;;;0.63;;
21352;SDS011;10834;52.268;6.770;2022-07-22T02:48:43;0.60;;;0.60;;
21352;SDS011;10834;52.268;6.770;2022-07-22T02:51:29;1.13;;;1.02;;
21352;SDS011;10834;52.268;6.770;2022-07-22T02:54:15;1.48;;;0.90;;
21352;SDS011;10834;52.268;6.770;2022-07-22T02:57:01;0.77;;;0.65;;
21352;SDS011;10834;52.268;6.770;2022-07-22T02:59:47;0.82;;;0.70;;
21352;SDS011;10834;52.268;6.770;2022-07-22T03:02:33;0.60;;;0.60;;
21352;SDS011;10834;52.268;6.770;2022-07-22T03:05:20;1.00;;;0.70;;
21352;SDS011;10834;52.268;6.770;2022-07-22T03:08:06;0.77;;;0.70;;
21352;SDS011;10834;52.268;6.770;2022-07-22T03:10:52;0.73;;;0.73;;
21352;SDS011;10834;52.268;6.770;2022-07-22T03:13:39;0.57;;;0.50;;
21352;SDS011;10834;52.268;6.770;2022-07-22T03:16:25;2.30;;;0.90;;
21352;SDS011;10834;52.268;6.770;2022-07-22T03:19:11;0.88;;;0.80;;
21352;SDS011;10834;52.268;6.770;2022-07-22T03:21:57;0.90;;;0.70;;
21352;SDS011;10834;52.268;6.770;2022-07-22T03:24:43;0.65;;;0.65;;
21352;SDS011;10834;52.268;6.770;2022-07-22T03:27:29;1.20;;;0.85;;
21352;SDS011;10834;52.268;6.770;2022-07-22T03:30:15;1.20;;;0.70;;
21352;SDS011;10834;52.268;6.770;2022-07-22T03:33:01;0.80;;;0.63;;
21352;SDS011;10834;52.268;6.770;2022-07-22T03:35:47;0.55;;;0.55;;
21352;SDS011;10834;52.268;6.770;2022-07-22T03:38:34;1.38;;;0.80;;
21352;SDS011;10834;52.268;6.770;2022-07-22T03:41:20;0.75;;;0.68;;
21352;SDS011;10834;52.268;6.770;2022-07-22T03:44:07;2.67;;;1.75;;
21352;SDS011;10834;52.268;6.770;2022-07-22T03:46:53;0.57;;;0.57;;
21352;SDS011;10834;52.268;6.770;2022-07-22T03:49:39;0.90;;;0.80;;
21352;SDS011;10834;52.268;6.770;2022-07-22T03:52:25;0.65;;;0.65;;
21352;SDS011;10834;52.268;6.770;2022-07-22T03:55:11;1.13;;;0.73;;
21352;SDS011;10834;52.268;6.770;2022-07-22T03:57:57;0.98;;;0.95;;
21352;SDS011;10834;52.268;6.770;2022-07-22T04:00:44;1.35;;;1.10;;
21352;SDS011;10834;52.268;6.770;2022-07-22T04:03:30;2.05;;;0.70;;
21352;SDS011;10834;52.268;6.770;2022-07-22T04:06:16;0.98;;;0.77;;
21352;SDS011;10834;52.268;6.770;2022-07-22T04:09:02;0.80;;;0.80;;
21352;SDS011;10834;52.268;6.770;2022-07-22T04:11:48;1.75;;;0.77;;
21352;SDS011;10834;52.268;6.770;2022-07-22T04:14:36;1.17;;;0.98;;
21352;SDS011;10834;52.268;6.770;2022-07-22T04:17:22;0.80;;;0.80;;
21352;SDS011;10834;52.268;6.770;2022-07-22T04:20:08;0.98;;;0.80;;
21352;SDS011;10834;52.268;6.770;2022-07-22T04:22:54;1.20;;;0.80;;
21352;SDS011;10834;52.268;6.770;2022-07-22T04:25:40;1.02;;;0.57;;
21352;SDS011;10834;52.268;6.770;2022-07-22T04:28:27;0.80;;;0.80;;
21352;SDS011;10834;52.268;6.770;2022-07-22T04:31:12;1.20;;;0.82;;
21352;SDS011;10834;52.268;6.770;2022-07-22T04:33:58;0.70;;;0.70;;
21352;SDS011;10834;52.268;6.770;2022-07-22T04:36:45;1.17;;;0.77;;
21352;SDS011;10834;52.268;6.770;2022-07-22T04:39:31;0.80;;;0.55;;
21352;SDS011;10834;52.268;6.770;2022-07-22T04:42:17;1.58;;;0.85;;
21352;SDS011;10834;52.268;6.770;2022-07-22T04:45:03;1.05;;;0.77;;
21352;SDS011;10834;52.268;6.770;2022-07-22T04:47:49;1.02;;;0.60;;
21352;SDS011;10834;52.268;6.770;2022-07-22T04:50:36;1.52;;;0.70;;
21352;SDS011;10834;52.268;6.770;2022-07-22T04:53:22;1.00;;;0.90;;
21352;SDS011;10834;52.268;6.770;2022-07-22T04:56:08;1.90;;;1.00;;
21352;SDS011;10834;52.268;6.770;2022-07-22T04:58:54;1.90;;;0.85;;
21352;SDS011;10834;52.268;6.770;2022-07-22T05:01:40;0.70;;;0.70;;
21352;SDS011;10834;52.268;6.770;2022-07-22T05:04:27;1.10;;;0.82;;
21352;SDS011;10834;52.268;6.770;2022-07-22T05:07:13;1.95;;;0.75;;
21352;SDS011;10834;52.268;6.770;2022-07-22T05:09:59;0.93;;;0.70;;
21352;SDS011;10834;52.268;6.770;2022-07-22T05:12:45;1.10;;;0.60;;
21352;SDS011;10834;52.268;6.770;2022-07-22T05:15:31;1.10;;;1.00;;
21352;SDS011;10834;52.268;6.770;2022-07-22T05:18:17;1.05;;;0.80;;
21352;SDS011;10834;52.268;6.770;2022-07-22T05:21:03;1.27;;;0.90;;
21352;SDS011;10834;52.268;6.770;2022-07-22T05:23:50;1.05;;;0.70;;
21352;SDS011;10834;52.268;6.770;2022-07-22T05:26:36;1.08;;;0.80;;
21352;SDS011;10834;52.268;6.770;2022-07-22T05:29:22;1.15;;;1.05;;
21352;SDS011;10834;52.268;6.770;2022-07-22T05:32:08;0.82;;;0.80;;
21352;SDS011;10834;52.268;6.770;2022-07-22T05:34:54;0.95;;;0.80;;
21352;SDS011;10834;52.268;6.770;2022-07-22T05:37:40;1.15;;;0.80;;
21352;SDS011;10834;52.268;6.770;2022-07-22T05:40:26;1.83;;;0.88;;
21352;SDS011;10834;52.268;6.770;2022-07-22T05:43:13;2.15;;;0.80;;
21352;SDS011;10834;52.268;6.770;2022-07-22T05:45:59;1.10;;;0.90;;
21352;SDS011;10834;52.268;6.770;2022-07-22T05:48:45;1.00;;;0.90;;
21352;SDS011;10834;52.268;6.770;2022-07-22T05:51:31;0.68;;;0.63;;
21352;SDS011;10834;52.268;6.770;2022-07-22T05:54:17;1.23;;;0.70;;
21352;SDS011;10834;52.268;6.770;2022-07-22T05:57:03;1.15;;;0.90;;
21352;SDS011;10834;52.268;6.770;2022-07-22T05:59:49;1.67;;;1.00;;
21352;SDS011;10834;52.268;6.770;2022-07-22T06:02:35;0.95;;;0.90;;
21352;SDS011;10834;52.268;6.770;2022-07-22T06:05:21;0.95;;;0.95;;
21352;SDS011;10834;52.268;6.770;2022-07-22T06:08:08;1.60;;;0.80;;
21352;SDS011;10834;52.268;6.770;2022-07-22T06:10:54;0.60;;;0.60;;
21352;SDS011;10834;52.268;6.770;2022-07-22T06:13:40;1.77;;;0.75;;
21352;SDS011;10834;52.268;6.770;2022-07-22T06:16:26;1.20;;;0.70;;
21352;SDS011;10834;52.268;6.770;2022-07-22T06:19:12;1.30;;;1.30;;
21352;SDS011;10834;52.268;6.770;2022-07-22T06:21:58;0.90;;;0.70;;
21352;SDS011;10834;52.268;6.770;2022-07-22T06:24:44;1.00;;;0.60;;
21352;SDS011;10834;52.268;6.770;2022-07-22T06:27:31;1.00;;;0.60;;
21352;SDS011;10834;52.268;6.770;2022-07-22T06:30:17;2.47;;;0.90;;
21352;SDS011;10834;52.268;6.770;2022-07-22T06:33:03;1.67;;;0.88;;
21352;SDS011;10834;52.268;6.770;2022-07-22T06:35:49;1.13;;;1.00;;
21352;SDS011;10834;52.268;6.770;2022-07-22T06:38:35;1.48;;;0.82;;
21352;SDS011;10834;52.268;6.770;2022-07-22T06:41:21;1.40;;;0.68;;
21352;SDS011;10834;52.268;6.770;2022-07-22T06:44:07;1.92;;;0.93;;
21352;SDS011;10834;52.268;6.770;2022-07-22T06:46:53;1.08;;;0.80;;
21352;SDS011;10834;52.268;6.770;2022-07-22T06:49:39;1.20;;;0.90;;
21352;SDS011;10834;52.268;6.770;2022-07-22T06:52:25;1.75;;;0.77;;
21352;SDS011;10834;52.268;6.770;2022-07-22T06:55:11;1.13;;;0.70;;
21352;SDS011;10834;52.268;6.770;2022-07-22T06:57:57;2.30;;;0.93;;
21352;SDS011;10834;52.268;6.770;2022-07-22T07:00:43;1.40;;;0.77;;
21352;SDS011;10834;52.268;6.770;2022-07-22T07:03:29;1.33;;;0.60;;
21352;SDS011;10834;52.268;6.770;2022-07-22T07:06:15;0.85;;;0.80;;
21352;SDS011;10834;52.268;6.770;2022-07-22T07:09:01;1.70;;;0.90;;
21352;SDS011;10834;52.268;6.770;2022-07-22T07:11:48;1.05;;;0.82;;
21352;SDS011;10834;52.268;6.770;2022-07-22T07:14:34;1.65;;;1.00;;
21352;SDS011;10834;52.268;6.770;2022-07-22T07:17:20;2.28;;;1.02;;
21352;SDS011;10834;52.268;6.770;2022-07-22T07:20:06;3.78;;;1.13;;
21352;SDS011;10834;52.268;6.770;2022-07-22T07:22:53;2.05;;;1.23;;
21352;SDS011;10834;52.268;6.770;2022-07-22T07:25:39;1.58;;;1.38;;
21352;SDS011;10834;52.268;6.770;2022-07-22T07:28:25;1.88;;;0.95;;
21352;SDS011;10834;52.268;6.770;2022-07-22T07:31:12;4.05;;;1.92;;
21352;SDS011;10834;52.268;6.770;2022-07-22T07:33:58;3.25;;;1.52;;
21352;SDS011;10834;52.268;6.770;2022-07-22T07:36:44;3.50;;;1.70;;
21352;SDS011;10834;52.268;6.770;2022-07-22T07:39:30;4.13;;;1.63;;
21352;SDS011;10834;52.268;6.770;2022-07-22T07:42:16;3.65;;;1.45;;
21352;SDS011;10834;52.268;6.770;2022-07-22T07:45:02;3.05;;;1.10;;
21352;SDS011;10834;52.268;6.770;2022-07-22T07:47:49;2.38;;;1.35;;
21352;SDS011;10834;52.268;6.770;2022-07-22T07:50:36;2.22;;;1.42;;
21352;SDS011;10834;52.268;6.770;2022-07-22T07:53:23;3.80;;;1.33;;
21352;SDS011;10834;52.268;6.770;2022-07-22T07:56:09;2.42;;;1.38;;
21352;SDS011;10834;52.268;6.770;2022-07-22T07:58:55;2.75;;;1.45;;
21352;SDS011;10834;52.268;6.770;2022-07-22T08:01:41;3.47;;;1.10;;
21352;SDS011;10834;52.268;6.770;2022-07-22T08:04:27;2.90;;;1.20;;
21352;SDS011;10834;52.268;6.770;2022-07-22T08:07:14;3.05;;;1.20;;
21352;SDS011;10834;52.268;6.770;2022-07-22T08:10:00;3.13;;;1.10;;
21352;SDS011;10834;52.268;6.770;2022-07-22T08:12:47;2.80;;;1.20;;
21352;SDS011;10834;52.268;6.770;2022-07-22T08:15:34;3.42;;;1.15;;
21352;SDS011;10834;52.268;6.770;2022-07-22T08:18:21;3.90;;;1.50;;
21352;SDS011;10834;52.268;6.770;2022-07-22T08:21:07;2.85;;;1.13;;
21352;SDS011;10834;52.268;6.770;2022-07-22T08:23:53;3.70;;;1.33;;
21352;SDS011;10834;52.268;6.770;2022-07-22T08:26:39;5.07;;;1.38;;
21352;SDS011;10834;52.268;6.770;2022-07-22T08:29:25;4.75;;;1.20;;
21352;SDS011;10834;52.268;6.770;2022-07-22T08:32:11;2.75;;;1.60;;
21352;SDS011;10834;52.268;6.770;2022-07-22T08:34:58;3.45;;;1.40;;
21352;SDS011;10834;52.268;6.770;2022-07-22T08:37:44;2.22;;;1.40;;
21352;SDS011;10834;52.268;6.770;2022-07-22T08:40:32;2.00;;;1.20;;
21352;SDS011;10834;52.268;6.770;2022-07-22T08:43:18;1.65;;;1.15;;
21352;SDS011;10834;52.268;6.770;2022-07-22T08:46:05;1.50;;;1.23;;
21352;SDS011;10834;52.268;6.770;2022-07-22T08:48:51;2.33;;;1.10;;
21352;SDS011;10834;52.268;6.770;2022-07-22T08:51:37;4.18;;;1.20;;
21352;SDS011;10834;52.268;6.770;2022-07-22T08:54:23;2.53;;;1.10;;
21352;SDS011;10834;52.268;6.770;2022-07-22T08:57:09;3.67;;;1.63;;
21352;SDS011;10834;52.268;6.770;2022-07-22T08:59:56;3.05;;;1.25;;
21352;SDS011;10834;52.268;6.770;2022-07-22T09:02:43;1.88;;;1.10;;
21352;SDS011;10834;52.268;6.770;2022-07-22T09:05:33;2.35;;;1.13;;
21352;SDS011;10834;52.268;6.770;2022-07-22T09:08:20;2.58;;;1.25;;
21352;SDS011;10834;52.268;6.770;2022-07-22T09:11:16;2.42;;;1.42;;
21352;SDS011;10834;52.268;6.770;2022-07-22T09:14:06;2.70;;;1.50;;
21352;SDS011;10834;52.268;6.770;2022-07-22T09:16:52;2.92;;;1.27;;
21352;SDS011;10834;52.268;6.770;2022-07-22T09:19:39;1.83;;;1.30;;
21352;SDS011;10834;52.268;6.770;2022-07-22T09:22:34;2.20;;;1.33;;
21352;SDS011;10834;52.268;6.770;2022-07-22T09:25:24;3.08;;;1.30;;
21352;SDS011;10834;52.268;6.770;2022-07-22T09:28:16;1.92;;;1.30;;
21352;SDS011;10834;52.268;6.770;2022-07-22T09:31:04;2.55;;;1.33;;
21352;SDS011;10834;52.268;6.770;2022-07-22T09:33:50;2.25;;;1.27;;
21352;SDS011;10834;52.268;6.770;2022-07-22T09:37:00;3.13;;;1.27;;
21352;SDS011;10834;52.268;6.770;2022-07-22T09:39:46;1.40;;;1.30;;
21352;SDS011;10834;52.268;6.770;2022-07-22T09:42:43;2.17;;;1.27;;
21352;SDS011;10834;52.268;6.770;2022-07-22T09:45:36;1.52;;;1.20;;
21352;SDS011;10834;52.268;6.770;2022-07-22T09:48:39;4.47;;;1.92;;
21352;SDS011;10834;52.268;6.770;2022-07-22T09:51:27;1.55;;;0.90;;
21352;SDS011;10834;52.268;6.770;2022-07-22T09:54:14;2.25;;;1.10;;
21352;SDS011;10834;52.268;6.770;2022-07-22T09:57:01;1.80;;;1.30;;
21352;SDS011;10834;52.268;6.770;2022-07-22T09:59:47;1.50;;;1.23;;
21352;SDS011;10834;52.268;6.770;2022-07-22T10:02:33;1.90;;;1.35;;
21352;SDS011;10834;52.268;6.770;2022-07-22T10:05:27;1.35;;;1.25;;
21352;SDS011;10834;52.268;6.770;2022-07-22T10:08:15;1.92;;;1.17;;
21352;SDS011;10834;52.268;6.770;2022-07-22T10:11:03;1.73;;;1.20;;
21352;SDS011;10834;52.268;6.770;2022-07-22T10:13:51;2.75;;;0.98;;
21352;SDS011;10834;52.268;6.770;2022-07-22T10:16:38;2.13;;;1.17;;
21352;SDS011;10834;52.268;6.770;2022-07-22T10:19:24;2.40;;;1.15;;
21352;SDS011;10834;52.268;6.770;2022-07-22T10:25:25;1.38;;;1.10;;
21352;SDS011;10834;52.268;6.770;2022-07-22T10:34:02;1.90;;;1.30;;
21352;SDS011;10834;52.268;6.770;2022-07-22T10:36:49;2.45;;;1.48;;
21352;SDS011;10834;52.268;6.770;2022-07-22T10:39:35;2.80;;;1.27;;
21352;SDS011;10834;52.268;6.770;2022-07-22T10:45:47;1.48;;;1.38;;
21352;SDS011;10834;52.268;6.770;2022-07-22T10:51:21;2.33;;;1.40;;
21352;SDS011;10834;52.268;6.770;2022-07-22T10:54:08;2.78;;;1.92;;
21352;SDS011;10834;52.268;6.770;2022-07-22T10:56:54;3.15;;;1.45;;
21352;SDS011;10834;52.268;6.770;2022-07-22T10:59:48;1.67;;;1.40;;
21352;SDS011;10834;52.268;6.770;2022-07-22T11:02:39;1.30;;;1.20;;
21352;SDS011;10834;52.268;6.770;2022-07-22T11:05:26;2.45;;;1.42;;
21352;SDS011;10834;52.268;6.770;2022-07-22T11:08:13;3.67;;;1.20;;
21352;SDS011;10834;52.268;6.770;2022-07-22T11:10:59;1.27;;;1.13;;
21352;SDS011;10834;52.268;6.770;2022-07-22T11:13:45;2.40;;;1.40;;
21352;SDS011;10834;52.268;6.770;2022-07-22T11:16:31;5.63;;;1.67;;
21352;SDS011;10834;52.268;6.770;2022-07-22T11:19:21;3.13;;;1.40;;
21352;SDS011;10834;52.268;6.770;2022-07-22T11:22:12;1.58;;;1.13;;
21352;SDS011;10834;52.268;6.770;2022-07-22T11:25:06;2.08;;;1.73;;
21352;SDS011;10834;52.268;6.770;2022-07-22T11:27:54;1.77;;;1.30;;
21352;SDS011;10834;52.268;6.770;2022-07-22T11:30:43;1.25;;;1.15;;
21352;SDS011;10834;52.268;6.770;2022-07-22T11:33:29;1.67;;;1.33;;
21352;SDS011;10834;52.268;6.770;2022-07-22T11:36:15;2.85;;;1.40;;
21352;SDS011;10834;52.268;6.770;2022-07-22T11:39:02;3.25;;;1.40;;
21352;SDS011;10834;52.268;6.770;2022-07-22T11:41:49;2.40;;;1.40;;
21352;SDS011;10834;52.268;6.770;2022-07-22T11:44:37;1.67;;;1.58;;
21352;SDS011;10834;52.268;6.770;2022-07-22T11:47:23;8.23;;;1.30;;
21352;SDS011;10834;52.268;6.770;2022-07-22T11:50:10;1.98;;;1.20;;
21352;SDS011;10834;52.268;6.770;2022-07-22T11:52:56;2.95;;;1.60;;
21352;SDS011;10834;52.268;6.770;2022-07-22T11:55:42;2.33;;;1.45;;
21352;SDS011;10834;52.268;6.770;2022-07-22T11:58:45;1.60;;;0.95;;
21352;SDS011;10834;52.268;6.770;2022-07-22T12:01:34;1.63;;;1.17;;
21352;SDS011;10834;52.268;6.770;2022-07-22T12:04:23;2.20;;;1.55;;
21352;SDS011;10834;52.268;6.770;2022-07-22T12:07:11;1.30;;;1.13;;
21352;SDS011;10834;52.268;6.770;2022-07-22T12:09:57;1.83;;;1.70;;
21352;SDS011;10834;52.268;6.770;2022-07-22T12:12:43;2.95;;;1.33;;
21352;SDS011;10834;52.268;6.770;2022-07-22T12:15:32;1.50;;;1.20;;
21352;SDS011;10834;52.268;6.770;2022-07-22T12:18:19;2.35;;;1.70;;
21352;SDS011;10834;52.268;6.770;2022-07-22T12:21:07;4.45;;;1.52;;
21352;SDS011;10834;52.268;6.770;2022-07-22T12:24:00;2.45;;;1.92;;
21352;SDS011;10834;52.268;6.770;2022-07-22T12:26:47;1.67;;;1.20;;
21352;SDS011;10834;52.268;6.770;2022-07-22T12:35:09;2.40;;;1.15;;
21352;SDS011;10834;52.268;6.770;2022-07-22T12:37:59;2.13;;;1.15;;
21352;SDS011;10834;52.268;6.770;2022-07-22T12:40:54;2.00;;;1.38;;
21352;SDS011;10834;52.268;6.770;2022-07-22T12:43:41;1.75;;;1.33;;
21352;SDS011;10834;52.268;6.770;2022-07-22T12:46:27;3.25;;;1.15;;
21352;SDS011;10834;52.268;6.770;2022-07-22T12:49:14;1.70;;;1.30;;
21352;SDS011;10834;52.268;6.770;2022-07-22T12:52:05;2.78;;;1.40;;
21352;SDS011;10834;52.268;6.770;2022-07-22T12:54:56;2.92;;;1.30;;
21352;SDS011;10834;52.268;6.770;2022-07-22T12:57:42;1.38;;;1.20;;
21352;SDS011;10834;52.268;6.770;2022-07-22T13:00:29;1.50;;;0.90;;
21352;SDS011;10834;52.268;6.770;2022-07-22T13:03:19;0.85;;;0.85;;
21352;SDS011;10834;52.268;6.770;2022-07-22T13:06:07;1.50;;;1.40;;
21352;SDS011;10834;52.268;6.770;2022-07-22T13:08:55;2.53;;;1.30;;
21352;SDS011;10834;52.268;6.770;2022-07-22T13:11:41;2.05;;;1.10;;
21352;SDS011;10834;52.268;6.770;2022-07-22T13:14:31;2.75;;;1.30;;
21352;SDS011;10834;52.268;6.770;2022-07-22T13:17:17;2.88;;;1.25;;
21352;SDS011;10834;52.268;6.770;2022-07-22T13:20:07;2.38;;;1.38;;
21352;SDS011;10834;52.268;6.770;2022-07-22T13:22:53;1.42;;;1.33;;
21352;SDS011;10834;52.268;6.770;2022-07-22T13:25:39;3.00;;;1.40;;
21352;SDS011;10834;52.268;6.770;2022-07-22T13:28:26;2.50;;;1.10;;
21352;SDS011;10834;52.268;6.770;2022-07-22T13:31:12;1.83;;;1.20;;
21352;SDS011;10834;52.268;6.770;2022-07-22T13:33:58;1.45;;;1.15;;
21352;SDS011;10834;52.268;6.770;2022-07-22T13:36:44;0.95;;;0.95;;
21352;SDS011;10834;52.268;6.770;2022-07-22T13:39:31;3.17;;;1.20;;
21352;SDS011;10834;52.268;6.770;2022-07-22T13:42:17;1.23;;;1.13;;
21352;SDS011;10834;52.268;6.770;2022-07-22T13:45:04;1.25;;;1.13;;
21352;SDS011;10834;52.268;6.770;2022-07-22T13:47:51;3.67;;;1.27;;
21352;SDS011;10834;52.268;6.770;2022-07-22T13:50:37;2.47;;;1.20;;
21352;SDS011;10834;52.268;6.770;2022-07-22T13:53:23;1.52;;;0.90;;
21352;SDS011;10834;52.268;6.770;2022-07-22T13:56:10;2.45;;;1.33;;
21352;SDS011;10834;52.268;6.770;2022-07-22T13:58:57;1.30;;;0.98;;
21352;SDS011;10834;52.268;6.770;2022-07-22T14:01:43;1.98;;;1.23;;
21352;SDS011;10834;52.268;6.770;2022-07-22T14:04:30;1.00;;;1.00;;
21352;SDS011;10834;52.268;6.770;2022-07-22T14:07:16;2.78;;;1.23;;
21352;SDS011;10834;52.268;6.770;2022-07-22T14:10:02;1.50;;;1.20;;
21352;SDS011;10834;52.268;6.770;2022-07-22T14:12:49;1.38;;;1.17;;
21352;SDS011;10834;52.268;6.770;2022-07-22T14:15:35;3.00;;;1.20;;
21352;SDS011;10834;52.268;6.770;2022-07-22T14:18:21;2.35;;;1.30;;
21352;SDS011;10834;52.268;6.770;2022-07-22T14:21:07;2.90;;;1.20;;
21352;SDS011;10834;52.268;6.770;2022-07-22T14:23:54;1.95;;;1.40;;
21352;SDS011;10834;52.268;6.770;2022-07-22T14:26:40;2.83;;;1.92;;
21352;SDS011;10834;52.268;6.770;2022-07-22T14:29:27;1.40;;;1.25;;
21352;SDS011;10834;52.268;6.770;2022-07-22T14:32:14;1.30;;;1.10;;
21352;SDS011;10834;52.268;6.770;2022-07-22T14:35:00;4.65;;;1.33;;
21352;SDS011;10834;52.268;6.770;2022-07-22T14:37:47;1.17;;;1.05;;
21352;SDS011;10834;52.268;6.770;2022-07-22T14:40:34;3.28;;;1.30;;
21352;SDS011;10834;52.268;6.770;2022-07-22T14:43:20;2.47;;;1.40;;
21352;SDS011;10834;52.268;6.770;2022-07-22T14:46:06;2.83;;;1.40;;
21352;SDS011;10834;52.268;6.770;2022-07-22T14:48:56;1.30;;;1.20;;
21352;SDS011;10834;52.268;6.770;2022-07-22T14:51:42;1.70;;;1.33;;
21352;SDS011;10834;52.268;6.770;2022-07-22T14:54:28;1.92;;;1.50;;
21352;SDS011;10834;52.268;6.770;2022-07-22T14:57:14;2.38;;;1.23;;
21352;SDS011;10834;52.268;6.770;2022-07-22T15:00:01;3.75;;;1.55;;
21352;SDS011;10834;52.268;6.770;2022-07-22T15:02:47;1.45;;;1.35;;
21352;SDS011;10834;52.268;6.770;2022-07-22T15:05:33;3.55;;;1.42;;
21352;SDS011;10834;52.268;6.770;2022-07-22T15:08:19;1.55;;;1.30;;
21352;SDS011;10834;52.268;6.770;2022-07-22T15:11:06;3.40;;;1.40;;
21352;SDS011;10834;52.268;6.770;2022-07-22T15:13:52;1.35;;;1.25;;
21352;SDS011;10834;52.268;6.770;2022-07-22T15:16:38;1.95;;;1.40;;
21352;SDS011;10834;52.268;6.770;2022-07-22T15:19:24;1.40;;;1.30;;
21352;SDS011;10834;52.268;6.770;2022-07-22T15:22:10;1.60;;;1.30;;
21352;SDS011;10834;52.268;6.770;2022-07-22T15:24:56;1.63;;;1.52;;
21352;SDS011;10834;52.268;6.770;2022-07-22T15:27:43;2.25;;;1.33;;
21352;SDS011;10834;52.268;6.770;2022-07-22T15:30:29;2.05;;;1.58;;
21352;SDS011;10834;52.268;6.770;2022-07-22T15:33:15;2.88;;;1.40;;
21352;SDS011;10834;52.268;6.770;2022-07-22T15:36:02;2.85;;;1.58;;
21352;SDS011;10834;52.268;6.770;2022-07-22T15:38:49;3.10;;;1.20;;
21352;SDS011;10834;52.268;6.770;2022-07-22T15:41:35;3.25;;;1.63;;
21352;SDS011;10834;52.268;6.770;2022-07-22T15:44:21;1.52;;;1.40;;
21352;SDS011;10834;52.268;6.770;2022-07-22T15:47:07;1.88;;;1.38;;
21352;SDS011;10834;52.268;6.770;2022-07-22T15:49:53;1.55;;;1.45;;
21352;SDS011;10834;52.268;6.770;2022-07-22T15:52:40;1.73;;;1.30;;
21352;SDS011;10834;52.268;6.770;2022-07-22T15:55:26;2.05;;;1.40;;
21352;SDS011;10834;52.268;6.770;2022-07-22T15:58:15;1.88;;;1.48;;
21352;SDS011;10834;52.268;6.770;2022-07-22T16:01:19;1.58;;;1.40;;
21352;SDS011;10834;52.268;6.770;2022-07-22T16:04:05;1.23;;;1.13;;
21352;SDS011;10834;52.268;6.770;2022-07-22T16:06:51;2.38;;;1.63;;
21352;SDS011;10834;52.268;6.770;2022-07-22T16:09:37;1.67;;;1.10;;
21352;SDS011;10834;52.268;6.770;2022-07-22T16:12:23;1.80;;;1.60;;
21352;SDS011;10834;52.268;6.770;2022-07-22T16:15:10;1.58;;;1.40;;
21352;SDS011;10834;52.268;6.770;2022-07-22T16:17:56;2.08;;;1.33;;
21352;SDS011;10834;52.268;6.770;2022-07-22T16:20:42;1.80;;;1.40;;
21352;SDS011;10834;52.268;6.770;2022-07-22T16:23:28;3.13;;;1.60;;
21352;SDS011;10834;52.268;6.770;2022-07-22T16:26:15;1.98;;;1.50;;
21352;SDS011;10834;52.268;6.770;2022-07-22T16:29:02;2.22;;;1.58;;
21352;SDS011;10834;52.268;6.770;2022-07-22T16:31:48;1.85;;;1.15;;
21352;SDS011;10834;52.268;6.770;2022-07-22T16:34:34;1.92;;;1.52;;
21352;SDS011;10834;52.268;6.770;2022-07-22T16:37:20;1.85;;;1.60;;
21352;SDS011;10834;52.268;6.770;2022-07-22T16:40:08;2.13;;;1.55;;
21352;SDS011;10834;52.268;6.770;2022-07-22T16:42:55;1.60;;;1.17;;
21352;SDS011;10834;52.268;6.770;2022-07-22T16:45:42;2.10;;;1.50;;
21352;SDS011;10834;52.268;6.770;2022-07-22T16:48:28;1.63;;;1.17;;
21352;SDS011;10834;52.268;6.770;2022-07-22T16:51:14;2.53;;;1.60;;
21352;SDS011;10834;52.268;6.770;2022-07-22T16:54:00;1.35;;;1.25;;
21352;SDS011;10834;52.268;6.770;2022-07-22T16:56:46;1.35;;;1.25;;
21352;SDS011;10834;52.268;6.770;2022-07-22T16:59:32;2.60;;;1.42;;
21352;SDS011;10834;52.268;6.770;2022-07-22T17:02:18;2.10;;;1.38;;
21352;SDS011;10834;52.268;6.770;2022-07-22T17:05:05;2.15;;;1.33;;
21352;SDS011;10834;52.268;6.770;2022-07-22T17:07:51;3.58;;;1.40;;